Latest Weather Observations for Norfolk Island

IDN60801

Issued at 2:52 pm EST Thursday 28 May 2020 (issued every 10 minutes, with the page automatically refreshed every 10 minutes)

About weather observations | Map of weather stations | Latest weather observations for NSW | Other Formats
Station Details ID: 200288 Name: NORFOLK ISLAND AERO Lat: -29.04 Lon: 167.94 Height: 111.73 m
Data from the previous 72 hours. | See also: Recent months at Norfolk Island

Observations are collected in the New South Wales time zone (Eastern Standard Time) which includes daylight savings in the summer period. Therefore 'Rain since 9am' totals and other values are based on the New South Wales time zone, which may differ from local time.

Date/Time
EST
Temp
°C
App
Temp
°C
Dew
Point
°C
Rel
Hum
%
Delta-T
°C
Wind Press
QNH
hPa
Press
MSL
hPa
Rain since
9am
mm
Dir  Spd
km/h
Gust
km/h
Spd
kts
Gust
kts
28/02:30pm 19.9 20.2 16.0 78 2.3 NNW 9 13 5 7 1018.9 1018.6 0.2
28/02:00pm 19.9 20.1 15.7 77 2.5 N 9 15 5 8 1018.8 1018.5 0.2
28/01:30pm 20.1 20.1 15.3 74 2.8 NNW 9 17 5 9 1019.0 1018.7 0.2
28/01:00pm 20.4 20.3 15.0 71 3.2 NW 9 13 5 7 1019.3 1019.0 0.2
28/12:30pm 20.8 20.2 14.7 68 3.6 N 11 17 6 9 1019.1 1018.8 0.2
28/12:00pm 21.3 20.9 15.2 68 3.6 NW 11 17 6 9 1019.3 1019.0 0.2
28/11:30am 20.6 21.3 15.6 73 3.0 N 6 11 3 6 1019.7 1019.4 0.2
28/11:00am 19.8 20.4 15.9 78 2.3 NNE 7 11 4 6 1020.2 1019.9 0.2
28/10:30am 20.0 20.7 16.2 79 2.3 NNE 7 11 4 6 1020.5 1020.2 0.0
28/10:00am 20.0 22.2 16.6 81 2.1 CALM 0 0 0 0 1020.9 1020.6 0.0
28/09:30am 20.0 21.5 16.6 81 2.1 N 4 9 2 5 1021.3 1021.0 0.0
28/09:00am 19.7 20.1 16.3 81 2.0 WNW 9 11 5 6 1021.3 1021.0 0.0
28/08:30am 19.7 20.1 16.2 80 2.1 WNW 9 11 5 6 1021.9 1021.7 0.0
28/08:00am 19.6 20.8 16.8 84 1.7 NW 6 9 3 5 1022.0 1021.8 0.0
28/07:30am 18.8 21.3 17.3 91 0.9 CALM 0 6 0 3 1021.8 1021.6 0.0
28/07:00am 18.3 20.9 17.5 95 0.5 CALM 0 0 0 0 1021.9 1021.7 0.0
28/06:30am 16.9 18.9 16.1 95 0.5 CALM 0 0 0 0 1021.4 1021.1 0.0
28/06:00am 16.4 18.2 15.6 95 0.5 CALM 0 0 0 0 1021.0 1020.7 0.0
28/05:30am 16.5 18.4 15.7 95 0.5 CALM 0 0 0 0 1020.2 1019.9 0.0
28/05:00am 16.5 18.5 15.9 96 0.4 CALM 0 0 0 0 1020.4 1020.1 0.0
28/04:30am 16.6 18.5 15.8 95 0.5 CALM 0 0 0 0 1020.2 1019.9 0.0
28/04:00am 15.9 17.6 15.1 95 0.5 CALM 0 0 0 0 1019.8 1019.5 0.0
28/03:44am 15.8 17.4 15.0 95 0.5 CALM 0 0 0 0 1020.2 1019.9 0.0
28/03:30am 16.1 17.8 15.3 95 0.5 CALM 0 0 0 0 1019.9 1019.6 0.0
28/03:25am 15.9 17.6 15.1 95 0.5 CALM 0 0 0 0 1020.0 1019.7 0.0
28/03:11am 16.4 18.2 15.6 95 0.5 CALM 0 0 0 0 1019.9 1019.6 0.0
28/03:00am 16.0 17.7 15.2 95 0.5 CALM 0 0 0 0 1020.2 1019.9 0.0
28/02:53am 15.9 17.6 15.1 95 0.5 CALM 0 0 0 0 1020.3 1020.0 0.0
28/02:30am 16.5 18.4 15.7 95 0.5 CALM 0 0 0 0 1020.4 1020.1 0.0
28/02:00am 16.3 18.1 15.5 95 0.5 CALM 0 0 0 0 1020.7 1020.4 0.0
28/01:30am 16.8 18.8 16.0 95 0.5 CALM 0 0 0 0 1020.3 1020.0 0.0
28/01:00am 16.0 17.6 15.0 94 0.6 CALM 0 0 0 0 1020.5 1020.2 0.0
28/12:30am 16.5 18.3 15.5 94 0.6 CALM 0 0 0 0 1020.5 1020.2 0.0
28/12:00am 16.6 17.1 15.6 94 0.6 W 7 7 4 4 1020.9 1020.6 0.0
 
Date/Time
EST
Temp
°C
App
Temp
°C
Dew
Point
°C
Rel
Hum
%
Delta-T
°C
Wind Press
QNH
hPa
Press
MSL
hPa
Rain since
9am
mm
Dir  Spd
km/h
Gust
km/h
Spd
kts
Gust
kts
27/11:30pm 16.8 18.7 15.8 94 0.6 CALM 0 0 0 0 1020.7 1020.4 0.0
27/11:00pm 16.3 18.0 15.3 94 0.6 CALM 0 0 0 0 1020.8 1020.5 0.0
27/10:50pm 16.5 17.5 15.4 93 0.6 W 4 7 2 4 1020.9 1020.6 0.0
27/10:30pm 16.7 18.5 15.6 93 0.6 CALM 0 0 0 0 1020.8 1020.5 0.0
27/10:28pm 16.5 18.3 15.4 93 0.6 CALM 0 0 0 0 1020.8 1020.5 0.0
27/10:00pm 16.7 18.5 15.6 93 0.6 CALM 0 0 0 0 1021.2 1020.9 0.0
27/09:46pm 16.7 18.5 15.6 93 0.6 CALM 0 0 0 0 1021.0 1020.7 0.0
27/09:30pm 17.1 17.8 16.0 93 0.7 W 7 7 4 4 1021.3 1021.0 0.0
27/09:12pm 17.1 19.1 16.0 93 0.7 CALM 0 0 0 0 1021.4 1021.1 0.0
27/09:00pm 17.1 19.0 15.8 92 0.8 CALM 0 0 0 0 1021.2 1020.9 0.0
27/08:30pm 16.8 18.6 15.5 92 0.8 CALM 0 0 0 0 1021.3 1021.0 0.0
27/08:00pm 17.1 19.0 15.8 92 0.8 CALM 0 0 0 0 1021.0 1020.7 0.0
27/07:30pm 17.1 18.6 15.6 91 0.9 W 2 7 1 4 1021.4 1021.1 0.0
27/07:00pm 17.2 18.3 15.7 91 0.9 W 4 7 2 4 1021.1 1020.8 0.0
27/06:41pm 17.4 19.3 15.7 90 1.0 CALM 0 0 0 0 1021.0 1020.7 0.0
27/06:30pm 17.7 18.6 16.0 90 1.0 WSW 6 9 3 5 1020.5 1020.2 0.0
27/06:00pm 18.0 20.1 16.2 89 1.1 CALM 0 0 0 0 1020.5 1020.2 0.0
27/05:30pm 18.7 19.2 16.5 87 1.3 SSW 9 13 5 7 1020.0 1019.7 0.0
27/05:00pm 18.3 20.0 16.1 87 1.3 SW 2 7 1 4 1019.6 1019.3 0.0
27/04:30pm 18.6 19.9 16.2 86 1.4 SSW 4 9 2 5 1019.6 1019.3 0.0
27/04:00pm 18.9 19.4 16.5 86 1.4 SW 9 11 5 6 1019.6 1019.3 0.0
27/03:37pm 19.1 20.0 16.7 86 1.5 SW 7 9 4 5 1019.2 1018.9 0.0
27/03:30pm 19.2 20.1 16.6 85 1.6 WSW 7 9 4 5 1019.2 1018.9 0.0
27/03:18pm 19.4 20.0 16.8 85 1.6 WSW 9 9 5 5 1019.3 1019.0 0.0
27/03:14pm 19.4 20.4 16.8 85 1.6 WSW 7 9 4 5 1019.2 1018.9 0.0
27/03:00pm 19.6 20.2 16.8 84 1.7 WSW 9 11 5 6 1018.9 1018.6 0.0
27/02:58pm 19.6 20.6 16.8 84 1.7 WSW 7 9 4 5 1019.0 1018.7 0.0
27/02:30pm 20.0 20.9 16.6 81 2.1 WSW 7 11 4 6 1019.0 1018.7 0.0
27/02:00pm 20.0 20.6 16.8 82 1.9 W 9 13 5 7 1018.8 1018.5 0.0
27/01:45pm 20.2 20.9 17.0 82 2.0 W 9 13 5 7 1018.9 1018.6 0.0
27/01:30pm 20.4 20.8 17.2 82 2.0 SW 11 15 6 8 1019.1 1018.8 0.0
27/01:26pm 20.3 20.6 16.9 81 2.1 SW 11 15 6 8 1019.1 1018.8 0.0
27/01:00pm 20.2 20.0 16.8 81 2.1 WSW 13 17 7 9 1018.8 1018.5 0.0
27/12:56pm 20.2 20.0 16.8 81 2.1 WSW 13 17 7 9 1018.8 1018.5 0.0
27/12:30pm 20.6 20.6 17.2 81 2.1 WSW 13 17 7 9 1019.2 1018.9 0.0
27/12:25pm 20.7 20.7 17.1 80 2.2 WSW 13 17 7 9 1019.2 1018.9 0.0
27/12:00pm 20.5 20.1 16.3 77 2.5 SW 13 17 7 9 1019.4 1019.1 0.0
27/11:30am 21.0 21.1 17.4 80 2.2 SW 13 17 7 9 1019.8 1019.5 0.0
27/11:00am 21.1 21.4 16.9 77 2.6 WSW 11 15 6 8 1020.0 1019.7 0.0
27/10:30am 20.8 20.7 17.0 79 2.3 SW 13 17 7 9 1020.1 1019.8 0.0
27/10:00am 20.4 20.2 16.8 80 2.2 SW 13 19 7 10 1020.5 1020.2 0.0
27/09:30am 20.8 20.8 17.2 80 2.2 SW 13 17 7 9 1021.1 1020.8 0.0
27/09:00am 20.3 20.6 16.9 81 2.1 SW 11 15 6 8 1021.2 1020.9 0.0
27/08:30am 20.0 20.2 16.8 82 1.9 SW 11 15 6 8 1021.4 1021.1 0.0
27/08:00am 20.2 20.1 17.0 82 1.9 SW 13 17 7 9 1021.3 1021.0 0.6
27/07:49am 20.3 20.6 17.1 82 2.0 SW 11 15 6 8 1021.1 1020.8 0.6
27/07:30am 19.8 20.1 17.0 84 1.7 SW 11 13 6 7 1020.9 1020.6 0.6
27/07:29am 19.8 20.1 17.0 84 1.7 SW 11 13 6 7 1020.9 1020.6 0.6
27/07:00am 19.7 20.2 17.5 87 1.3 WSW 11 17 6 9 1020.8 1020.5 0.6
27/06:30am 19.3 19.3 17.3 88 1.2 WSW 13 19 7 10 1020.5 1020.2 0.6
27/06:00am 18.5 18.3 16.7 89 1.1 WSW 13 17 7 9 1020.1 1019.8 0.4
27/05:30am 18.3 18.3 16.3 88 1.2 W 11 13 6 7 1019.7 1019.4 0.4
27/05:09am 18.4 16.9 16.2 87 1.3 W 19 30 10 16 1019.6 1019.3 0.4
27/05:00am 19.0 17.7 16.8 87 1.3 W 19 26 10 14 1019.5 1019.2 0.4
27/04:42am 18.9 17.9 16.5 86 1.4 W 17 20 9 11 1019.3 1019.0 0.4
27/04:30am 18.9 18.2 16.5 86 1.4 W 15 19 8 10 1019.3 1019.0 0.4
27/04:00am 18.8 17.8 16.6 87 1.3 W 17 20 9 11 1018.8 1018.5 0.4
27/03:30am 18.8 17.9 16.9 89 1.2 W 17 22 9 12 1018.6 1018.3 0.4
27/03:05am 19.0 18.6 17.1 89 1.2 WNW 15 20 8 11 1018.9 1018.6 0.4
27/03:00am 19.0 18.7 17.3 90 1.0 WNW 15 24 8 13 1018.9 1018.6 0.4
27/02:47am 19.1 19.2 17.4 90 1.0 WNW 13 19 7 10 1019.0 1018.7 0.4
27/02:30am 19.1 19.2 17.4 90 1.0 NW 13 19 7 10 1019.1 1018.8 0.4
27/02:02am 19.1 18.7 17.2 89 1.2 WNW 15 20 8 11 1019.3 1019.0 0.4
27/02:00am 19.0 18.6 17.1 89 1.2 WNW 15 20 8 11 1019.3 1019.0 0.4
27/01:30am 18.9 18.8 16.9 88 1.2 WNW 13 19 7 10 1019.0 1018.7 0.4
27/01:00am 19.0 18.5 16.8 87 1.3 WNW 15 20 8 11 1019.2 1018.9 0.4
27/12:30am 18.6 18.3 16.4 87 1.3 WNW 13 17 7 9 1019.3 1019.0 0.4
27/12:00am 18.6 18.7 16.6 88 1.2 NW 11 17 6 9 1019.5 1019.2 0.4
 
Date/Time
EST
Temp
°C
App
Temp
°C
Dew
Point
°C
Rel
Hum
%
Delta-T
°C
Wind Press
QNH
hPa
Press
MSL
hPa
Rain since
9am
mm
Dir  Spd
km/h
Gust
km/h
Spd
kts
Gust
kts
26/11:30pm 18.7 18.9 16.7 88 1.2 NW 11 19 6 10 1019.4 1019.1 0.4
26/11:00pm 18.3 18.8 16.6 90 1.0 NNW 9 15 5 8 1019.3 1019.0 0.4
26/10:30pm 18.0 18.4 16.2 89 1.1 NNW 9 17 5 9 1019.3 1019.0 0.4
26/10:00pm 18.4 18.5 15.5 83 1.7 N 9 13 5 7 1019.1 1018.8 0.4
26/09:30pm 18.6 18.6 15.1 80 2.1 NW 9 13 5 7 1019.8 1019.5 0.4
26/09:00pm 18.7 18.2 15.0 79 2.2 NW 11 19 6 10 1019.3 1019.0 0.4
26/08:53pm 18.8 18.1 15.5 81 2.0 NW 13 20 7 11 1019.0 1018.7 0.4
26/08:30pm 19.2 19.3 17.5 90 1.0 NW 13 20 7 11 1019.4 1019.1 0.4
26/08:28pm 19.2 19.3 17.5 90 1.0 NW 13 19 7 10 1019.3 1019.0 0.4
26/08:00pm 19.0 19.4 17.3 90 1.0 NW 11 17 6 9 1019.1 1018.8 0.4
26/07:30pm 19.0 19.3 17.0 88 1.2 NW 11 20 6 11 1019.2 1018.9 0.4
26/07:00pm 18.7 18.9 16.7 88 1.2 NW 11 17 6 9 1019.3 1019.0 0.4
26/06:30pm 18.6 18.7 16.6 88 1.2 NNW 11 17 6 9 1019.0 1018.7 0.4
26/06:00pm 18.4 19.2 16.4 88 1.2 NNW 7 13 4 7 1018.2 1017.9 0.4
26/05:30pm 18.3 18.2 16.1 87 1.3 N 11 19 6 10 1018.4 1018.1 0.4
26/05:00pm 18.3 18.5 15.7 85 1.5 NNW 9 15 5 8 1017.6 1017.3 0.4
26/04:30pm 17.8 17.8 15.2 85 1.5 NNW 9 17 5 9 1018.5 1018.2 0.4
26/04:00pm 18.0 18.1 15.4 85 1.5 NNW 9 15 5 8 1017.9 1017.6 0.4
26/03:30pm 18.1 18.5 15.2 83 1.7 N 7 15 4 8 1017.3 1017.0 0.4
26/03:00pm 18.0 18.0 15.3 84 1.6 N 9 17 5 9 1017.1 1016.8 0.4
26/02:30pm 18.0 18.0 15.3 84 1.6 N 9 15 5 8 1017.9 1017.6 0.4
26/02:00pm 17.8 17.0 15.1 84 1.6 NNE 13 20 7 11 1016.7 1016.4 0.4
26/01:30pm 18.0 18.4 15.4 85 1.5 NNW 7 11 4 6 1017.5 1017.2 0.4
26/01:00pm 17.6 17.5 15.0 85 1.5 NNW 9 15 5 8 1016.6 1016.3 0.4
26/12:30pm 17.5 17.5 15.1 86 1.4 NNE 9 15 5 8 1016.7 1016.4 0.4
26/12:00pm 17.9 18.3 15.3 85 1.5 NNW 7 11 4 6 1017.9 1017.6 0.4
26/11:30am 17.5 17.7 14.8 84 1.6 WNW 7 9 4 5 1017.7 1017.4 0.4
26/11:00am 17.2 15.9 14.8 86 1.4 NE 15 20 8 11 1017.5 1017.2 0.4
26/10:30am 17.5 17.9 14.8 84 1.6 ENE 6 11 3 6 1019.0 1018.7 0.4
26/10:00am 17.6 17.6 13.7 78 2.2 WSW 6 15 3 8 1019.3 1019.0 0.4
26/09:30am 17.8 15.7 13.7 77 2.3 WSW 17 26 9 14 1019.4 1019.1 0.4
26/09:00am 17.8 16.7 14.3 80 2.0 W 13 19 7 10 1019.7 1019.4 0.4
26/08:30am 17.0 14.3 13.5 80 2.0 WSW 20 28 11 15 1019.4 1019.1 0.4
26/08:00am 17.6 16.2 15.6 88 1.2 WNW 17 26 9 14 1019.5 1019.2 32.2
26/07:30am 16.2 15.7 14.9 92 0.8 WNW 11 15 6 8 1019.3 1019.0 32.2
26/07:00am 16.1 16.1 15.1 94 0.6 NW 9 17 5 9 1018.8 1018.5 32.2
26/06:59am 16.0 15.9 15.0 94 0.6 NNW 9 17 5 9 1018.8 1018.5 32.2
26/06:57am 16.0 16.4 15.2 95 0.5 NNW 7 13 4 7 1018.8 1018.5 32.2
26/06:30am 16.0 12.8 15.2 95 0.5 W 26 37 14 20 1019.5 1019.2 32.2
26/06:18am 16.8 14.2 16.0 95 0.5 W 24 37 13 20 1019.5 1019.2 31.2
26/06:11am 16.8 15.1 16.2 96 0.4 W 20 35 11 19 1019.4 1019.1 31.2
26/06:00am 16.6 16.1 16.0 96 0.4 WNW 13 15 7 8 1018.9 1018.6 30.8
26/05:44am 16.5 16.8 15.9 96 0.4 WNW 9 11 5 6 1018.5 1018.2 30.8
26/05:30am 16.5 16.0 15.9 96 0.4 W 13 19 7 10 1018.0 1017.7 30.8
26/05:23am 16.6 15.4 16.0 96 0.4 WNW 17 22 9 12 1018.0 1017.7 30.8
26/05:00am 16.4 15.0 15.6 95 0.5 WNW 17 24 9 13 1018.2 1017.9 30.8
26/04:30am 17.1 15.6 16.3 95 0.5 WNW 19 26 10 14 1018.4 1018.1 29.4
26/04:00am 17.0 16.6 16.2 95 0.5 WNW 13 22 7 12 1017.5 1017.2 27.8
26/03:30am 17.3 15.7 16.5 95 0.5 WNW 20 28 11 15 1017.7 1017.4 27.4
26/03:01am 17.2 15.6 16.1 93 0.7 WNW 19 28 10 15 1017.3 1017.0 23.6
26/03:00am 17.1 15.5 16.0 93 0.7 WNW 19 28 10 15 1017.3 1017.0 23.4
26/02:38am 16.8 15.2 15.0 89 1.0 WNW 17 30 9 16 1017.9 1017.6 20.2
26/02:30am 16.3 15.0 14.7 90 0.9 WNW 15 17 8 9 1017.6 1017.3 19.6
26/02:00am 16.2 14.8 14.4 89 1.0 WNW 15 19 8 10 1017.7 1017.4 19.6
26/01:51am 16.2 13.9 14.7 91 0.9 WNW 20 30 11 16 1017.9 1017.6 19.6
26/01:38am 16.0 13.4 14.9 93 0.6 WNW 22 37 12 20 1017.9 1017.6 19.6
26/01:30am 16.1 13.6 15.1 94 0.6 NW 22 41 12 22 1018.0 1017.7 19.2
26/01:14am 16.7 13.3 15.7 94 0.6 WNW 28 56 15 30 1018.4 1018.1 18.0
26/01:05am 17.7 16.8 16.9 95 0.5 WNW 17 26 9 14 1018.1 1017.8 17.6
26/01:00am 17.6 17.4 16.8 95 0.5 WNW 13 20 7 11 1017.9 1017.6 16.4
26/12:52am 17.5 16.8 16.5 94 0.6 WNW 15 19 8 10 1018.0 1017.7 16.4
26/12:48am 17.5 16.8 16.5 94 0.6 WNW 15 19 8 10 1017.9 1017.6 16.0
26/12:46am 17.5 16.8 16.5 94 0.6 WNW 15 19 8 10 1018.0 1017.7 15.8
26/12:30am 17.3 15.8 16.3 94 0.6 WNW 19 30 10 16 1018.1 1017.8 15.8
26/12:00am 18.4 17.6 17.1 92 0.8 NW 17 24 9 13 1017.9 1017.6 10.2
 
Date/Time
EST
Temp
°C
App
Temp
°C
Dew
Point
°C
Rel
Hum
%
Delta-T
°C
Wind Press
QNH
hPa
Press
MSL
hPa
Rain since
9am
mm
Dir  Spd
km/h
Gust
km/h
Spd
kts
Gust
kts
25/11:43pm 18.7 19.0 16.9 89 1.1 NNW 11 20 6 11 1018.0 1017.7 9.6
25/11:32pm 19.1 18.9 16.7 86 1.5 NW 13 26 7 14 1017.4 1017.1 9.4
25/11:30pm 19.2 18.6 16.6 85 1.6 NW 15 26 8 14 1017.7 1017.4 9.4
25/11:00pm 19.3 17.5 15.6 79 2.2 NNW 19 37 10 20 1018.1 1017.8 9.4
25/10:30pm 19.0 17.5 16.2 84 1.7 NW 19 33 10 18 1018.4 1018.1 9.4
25/10:00pm 18.2 17.2 15.6 85 1.5 NW 15 26 8 14 1017.8 1017.5 9.4
25/09:30pm 18.0 16.9 16.3 90 1.0 NNW 17 32 9 17 1017.9 1017.6 9.4
25/09:03pm 18.0 17.1 16.9 93 0.7 NNW 17 28 9 15 1017.6 1017.3 9.2
25/09:00pm 18.0 17.2 17.0 94 0.6 NNW 17 32 9 17 1017.6 1017.3 9.2
25/08:45pm 18.2 15.4 17.2 94 0.6 NW 28 46 15 25 1018.3 1018.0 9.2
25/08:34pm 18.7 17.2 17.7 94 0.6 NW 22 37 12 20 1018.4 1018.1 9.2
25/08:31pm 18.6 17.4 17.6 94 0.6 NW 20 33 11 18 1018.4 1018.1 9.2
25/08:30pm 18.6 17.4 17.6 94 0.6 NW 20 32 11 17 1018.3 1018.0 9.2
25/08:00pm 18.0 17.5 17.0 94 0.6 NW 15 28 8 15 1017.2 1016.9 8.6
25/07:58pm 18.0 17.9 17.0 94 0.6 NW 13 22 7 12 1017.0 1016.7 8.2
25/07:49pm 17.9 17.4 16.9 94 0.6 WNW 15 19 8 10 1016.8 1016.5 8.0
25/07:30pm 17.9 14.2 16.9 94 0.6 WNW 32 52 17 28 1018.1 1017.8 7.6
25/07:23pm 18.4 15.6 17.4 94 0.6 WNW 28 52 15 28 1017.9 1017.6 6.4
25/07:00pm 18.9 19.6 17.9 94 0.6 NW 11 22 6 12 1017.3 1017.0 3.8
25/06:40pm 18.6 17.6 17.6 94 0.6 NW 19 28 10 15 1017.4 1017.1 3.6
25/06:30pm 18.5 17.3 17.5 94 0.6 WNW 20 32 11 17 1017.0 1016.7 3.6
25/06:03pm 19.0 17.9 17.7 92 0.8 NW 20 41 11 22 1017.5 1017.2 2.6
25/06:00pm 18.9 17.0 17.6 92 0.8 NW 24 41 13 22 1017.5 1017.2 2.6
25/05:30pm 20.0 18.9 18.7 92 0.8 NW 22 35 12 19 1017.1 1016.8 2.0
25/05:00pm 20.1 19.6 18.6 91 0.9 NW 19 32 10 17 1016.1 1015.8 1.8
25/04:30pm 20.0 19.5 18.7 92 0.8 NNW 19 33 10 18 1015.3 1015.0 1.8
25/04:00pm 19.9 19.7 18.6 92 0.8 NNW 17 33 9 18 1014.9 1014.6 1.8
25/03:30pm 19.9 19.1 18.4 91 0.9 NNW 20 37 11 20 1015.0 1014.7 1.6
25/03:00pm 20.0 19.1 18.3 90 1.1 NW 20 33 11 18 1015.6 1015.3 1.6
25/02:30pm 20.0 18.3 18.1 89 1.2 NW 24 41 13 22 1014.7 1014.4 1.4
25/02:20pm 20.0 17.7 18.5 91 0.9 NW 28 48 15 26 1014.7 1014.4 1.4
25/02:00pm 20.1 19.1 18.8 92 0.8 NW 22 41 12 22 1014.6 1014.3 1.4
25/01:30pm 20.0 18.8 18.5 91 0.9 NNW 22 41 12 22 1014.9 1014.6 1.2

Other formats

Comma delimited format used in spreadsheet applications
http://www.bom.gov.au/fwo/IDN60801/IDN60801.94996.axf

JavaScript Object Notation format (JSON) in row-major order
http://www.bom.gov.au/fwo/IDN60801/IDN60801.94996.json

Data quality

Most of these data are generated automatically and are frequently updated. Quality checks on data are not normally performed. It is possible for incorrect values to appear. Refer to information at About Latest Weather Observations and please check the disclaimer before using these data.